createdAt,value
2017-09-03T00:00:42.770Z,100745.14
2017-09-03T00:03:10.328Z,100745.83
2017-09-03T00:05:37.717Z,100742.13
2017-09-03T00:08:05.114Z,100734.75
2017-09-03T00:10:32.531Z,100740.59
2017-09-03T00:12:59.931Z,100742.66
2017-09-03T00:15:27.339Z,100734.83
2017-09-03T00:17:54.773Z,100734.22
2017-09-03T00:20:22.174Z,100735.87
2017-09-03T00:22:49.578Z,100736.29
2017-09-03T00:25:17.126Z,100732.81
2017-09-03T00:27:44.523Z,100732.59
2017-09-03T00:30:11.920Z,100737.33
2017-09-03T00:32:39.335Z,100736.83
2017-09-03T00:35:06.734Z,100739.20
2017-09-03T00:37:34.125Z,100738.67
2017-09-03T00:40:01.531Z,100737.95
2017-09-03T00:42:28.923Z,100740.31
2017-09-03T00:44:56.318Z,100733.75
2017-09-03T00:47:23.738Z,100733.94
2017-09-03T00:49:51.138Z,100730.58
2017-09-03T00:52:18.534Z,100736.11
2017-09-03T00:54:46.039Z,100729.73
2017-09-03T00:57:13.430Z,100727.67
2017-09-03T00:59:40.827Z,100727.67
2017-09-03T01:02:08.375Z,100718.56
2017-09-03T01:04:35.770Z,100720.62
2017-09-03T01:07:03.164Z,100721.84
2017-09-03T01:09:30.736Z,100727.48
2017-09-03T01:11:58.122Z,100725.96
2017-09-03T01:14:25.524Z,100724.20
2017-09-03T01:16:53.063Z,100721.84
2017-09-03T01:19:20.456Z,100716.50
2017-09-03T01:21:47.845Z,100717.00
2017-09-03T01:24:15.370Z,100719.59
2017-09-03T01:26:42.750Z,100720.09
2017-09-03T01:29:10.142Z,100715.88
2017-09-03T01:31:37.589Z,100711.58
2017-09-03T01:34:04.991Z,100712.19
2017-09-03T01:36:32.387Z,100707.15
2017-09-03T01:38:59.803Z,100703.67
2017-09-03T01:41:27.195Z,100707.04
2017-09-03T01:43:54.593Z,100709.30
2017-09-03T01:46:22.023Z,100711.05
2017-09-03T01:48:49.739Z,100713.63
2017-09-03T01:51:17.134Z,100711.58
2017-09-03T01:53:44.689Z,100712.08
2017-09-03T01:56:12.086Z,100718.66
2017-09-03T01:58:39.478Z,100713.33
2017-09-03T02:01:06.884Z,100712.18
2017-09-03T02:03:41.830Z,100707.87
2017-09-03T02:06:09.235Z,100701.19
2017-09-03T02:08:36.633Z,100700.45
2017-09-03T02:11:04.027Z,100697.69
2017-09-03T02:13:31.578Z,100697.47
2017-09-03T02:15:58.988Z,100694.49
2017-09-03T02:18:26.372Z,100696.91
2017-09-03T02:20:53.923Z,100693.94
2017-09-03T02:23:21.318Z,100692.36
2017-09-03T02:25:48.711Z,100696.67
2017-09-03T02:28:16.263Z,100693.36
2017-09-03T02:30:43.658Z,100688.55
2017-09-03T02:33:11.054Z,100690.39
2017-09-03T02:35:38.624Z,100693.17
2017-09-03T02:38:06.017Z,100693.38
2017-09-03T02:40:33.410Z,100697.19
2017-09-03T02:43:00.973Z,100696.98
2017-09-03T02:45:28.364Z,100695.84
2017-09-03T02:47:55.761Z,100696.34
2017-09-03T02:50:23.178Z,100689.75
2017-09-03T02:52:50.576Z,100696.96
2017-09-03T02:55:17.970Z,100695.22
2017-09-03T02:57:45.559Z,100695.83
2017-09-03T03:00:12.975Z,100689.76
2017-09-03T03:02:40.343Z,100684.60
2017-09-03T03:05:07.891Z,100686.34
2017-09-03T03:07:35.287Z,100682.82
2017-09-03T03:10:02.687Z,100683.25
2017-09-03T03:12:30.234Z,100682.83
2017-09-03T03:14:57.631Z,100688.18
2017-09-03T03:17:25.022Z,100685.83
2017-09-03T03:19:52.442Z,100686.24
2017-09-03T03:22:19.851Z,100682.84
2017-09-03T03:24:47.255Z,100677.50
2017-09-03T03:27:14.706Z,100680.90
2017-09-03T03:29:42.108Z,100683.76
2017-09-03T03:32:09.503Z,100677.92
2017-09-03T03:34:37.051Z,100674.13
2017-09-03T03:37:04.443Z,100677.39
2017-09-03T03:39:31.844Z,100678.34
2017-09-03T03:41:59.591Z,100670.23
2017-09-03T03:44:26.985Z,100668.16
2017-09-03T03:46:54.389Z,100672.27
2017-09-03T03:49:21.902Z,100670.63
2017-09-03T03:51:49.294Z,100669.30
2017-09-03T03:54:16.691Z,100664.47
2017-09-03T03:56:44.198Z,100663.05
2017-09-03T03:59:11.596Z,100668.26
2017-09-03T04:01:39.001Z,100661.47
2017-09-03T04:04:06.547Z,100663.22
2017-09-03T04:06:33.943Z,100666.19
2017-09-03T04:09:01.343Z,100664.66
2017-09-03T04:11:28.888Z,100668.34
2017-09-03T04:13:56.283Z,100658.48
2017-09-03T04:16:23.678Z,100651.02
2017-09-03T04:18:51.459Z,100653.14
2017-09-03T04:21:18.863Z,100649.11
2017-09-03T04:23:46.262Z,100652.48
2017-09-03T04:26:13.810Z,100648.19
2017-09-03T04:28:41.209Z,100651.90
2017-09-03T04:31:08.614Z,100646.98
2017-09-03T04:33:36.051Z,100644.43
2017-09-03T04:36:03.442Z,100648.51
2017-09-03T04:38:30.838Z,100644.80
2017-09-03T04:40:58.390Z,100643.77
2017-09-03T04:43:25.787Z,100645.74
2017-09-03T04:45:53.185Z,100650.44
2017-09-03T04:48:20.595Z,100646.35
2017-09-03T04:50:47.999Z,100647.69
2017-09-03T04:53:15.390Z,100647.77
2017-09-03T04:55:42.831Z,100645.94
2017-09-03T04:58:10.242Z,100642.78
2017-09-03T05:00:37.635Z,100645.04
2017-09-03T05:03:05.043Z,100645.66
2017-09-03T05:05:32.435Z,100640.63
2017-09-03T05:07:59.830Z,100643.30
2017-09-03T05:10:27.383Z,100649.36
2017-09-03T05:12:54.779Z,100645.36
2017-09-03T05:15:22.172Z,100653.45
2017-09-03T05:17:49.727Z,100645.98
2017-09-03T05:20:17.123Z,100651.42
2017-09-03T05:22:44.518Z,100651.73
2017-09-03T05:25:12.075Z,100644.04
2017-09-03T05:27:39.481Z,100643.94
2017-09-03T05:30:06.870Z,100646.72
2017-09-03T05:32:34.426Z,100647.33
2017-09-03T05:35:01.818Z,100654.50
2017-09-03T05:37:29.206Z,100646.63
2017-09-03T05:39:56.703Z,100655.75
2017-09-03T05:42:24.102Z,100639.05
2017-09-03T05:44:51.503Z,100645.95
2017-09-03T05:47:19.050Z,100644.32
2017-09-03T05:49:46.450Z,100650.27
2017-09-03T05:52:13.846Z,100640.21
2017-09-03T05:54:41.810Z,100643.91
2017-09-03T05:57:09.790Z,100633.84
2017-09-03T05:59:37.182Z,100641.85
2017-09-03T06:02:04.731Z,100639.27
2017-09-03T06:04:32.125Z,100646.35
2017-09-03T06:06:59.522Z,100638.56
2017-09-03T06:09:27.066Z,100637.73
2017-09-03T06:11:54.463Z,100648.52
2017-09-03T06:14:21.869Z,100642.64
2017-09-03T06:16:49.302Z,100640.08
2017-09-03T06:19:16.702Z,100640.56
2017-09-03T06:21:44.146Z,100640.86
2017-09-03T06:24:11.690Z,100640.13
2017-09-03T06:26:39.100Z,100637.37
2017-09-03T06:29:06.507Z,100625.62
2017-09-03T06:31:34.014Z,100636.92
2017-09-03T06:34:01.422Z,100636.48
2017-09-03T06:36:32.011Z,100628.02
2017-09-03T06:38:59.420Z,100639.50
2017-09-03T06:41:26.819Z,100644.75
2017-09-03T06:43:54.219Z,100639.88
2017-09-03T06:46:21.639Z,100642.22
2017-09-03T06:48:49.039Z,100641.01
2017-09-03T06:51:16.432Z,100642.80
2017-09-03T06:53:43.870Z,100644.92
2017-09-03T06:56:11.271Z,100645.55
2017-09-03T06:58:38.663Z,100646.03
2017-09-03T07:01:06.215Z,100651.36
2017-09-03T07:03:33.623Z,100649.89
2017-09-03T07:06:01.011Z,100652.55
2017-09-03T07:08:28.419Z,100653.11
2017-09-03T07:10:55.814Z,100650.22
2017-09-03T07:13:23.212Z,100650.08
2017-09-03T07:15:50.627Z,100654.84
2017-09-03T07:18:18.027Z,100658.72
2017-09-03T07:20:45.441Z,100655.14
2017-09-03T07:23:12.885Z,100653.17
2017-09-03T07:25:40.287Z,100652.97
2017-09-03T07:28:07.686Z,100648.28
2017-09-03T07:30:35.094Z,100644.84
2017-09-03T07:33:02.495Z,100641.28
2017-09-03T07:35:29.890Z,100638.92
2017-09-03T07:37:57.299Z,100643.78
2017-09-03T07:40:24.692Z,100641.97
2017-09-03T07:42:52.092Z,100641.25
2017-09-03T07:45:19.531Z,100640.77
2017-09-03T07:47:46.930Z,100641.04
2017-09-03T07:50:14.323Z,100641.91
2017-09-03T07:52:42.086Z,100640.99
2017-09-03T07:55:09.483Z,100646.38
2017-09-03T07:57:36.875Z,100648.58
2017-09-03T08:00:04.430Z,100652.32
2017-09-03T08:02:31.822Z,100654.46
2017-09-03T08:04:59.219Z,100648.55
2017-09-03T08:07:26.642Z,100648.91
2017-09-03T08:09:54.087Z,100642.41
2017-09-03T08:12:21.462Z,100637.75
2017-09-03T08:14:49.019Z,100636.63
2017-09-03T08:17:16.410Z,100635.20
2017-09-03T08:19:43.808Z,100633.77
2017-09-03T08:22:11.364Z,100640.74
2017-09-03T08:24:38.751Z,100638.38
2017-09-03T08:27:06.150Z,100633.42
2017-09-03T08:29:33.714Z,100628.41
2017-09-03T08:32:01.121Z,100633.21
2017-09-03T08:34:28.531Z,100625.62
2017-09-03T08:36:55.939Z,100623.48
2017-09-03T08:39:23.340Z,100624.84
2017-09-03T08:42:03.699Z,100620.12
2017-09-03T08:44:31.094Z,100619.13
2017-09-03T08:46:59.274Z,100616.45
2017-09-03T08:49:26.918Z,100617.58
2017-09-03T08:51:54.318Z,100620.35
2017-09-03T08:54:21.789Z,100617.69
2017-09-03T08:56:49.334Z,100614.15
2017-09-03T08:59:16.730Z,100612.75
2017-09-03T09:01:44.549Z,100609.41
2017-09-03T09:04:12.115Z,100606.86
2017-09-03T09:06:39.506Z,100604.47
2017-09-03T09:09:06.943Z,100597.98
2017-09-03T09:11:34.539Z,100604.44
2017-09-03T09:14:02.001Z,100602.72
2017-09-03T09:16:30.014Z,100602.81
2017-09-03T09:18:57.523Z,100601.95
2017-09-03T09:21:27.015Z,100596.69
2017-09-03T09:23:54.411Z,100598.52
2017-09-03T09:26:21.836Z,100588.48
2017-09-03T09:28:49.255Z,100594.94
2017-09-03T09:31:16.657Z,100599.17
2017-09-03T09:33:44.215Z,100593.17
2017-09-03T09:36:11.612Z,100592.04
2017-09-03T09:38:39.007Z,100583.80
2017-09-03T09:41:06.447Z,100582.40
2017-09-03T09:43:33.846Z,100584.30
2017-09-03T09:46:01.254Z,100581.64
2017-09-03T09:48:28.816Z,100576.92
2017-09-03T09:50:56.260Z,100583.89
2017-09-03T09:53:23.655Z,100579.13
2017-09-03T09:55:51.228Z,100582.73
2017-09-03T09:58:18.668Z,100580.59
2017-09-03T10:00:46.118Z,100576.16
2017-09-03T10:03:13.563Z,100582.39
2017-09-03T10:05:41.040Z,100575.60
2017-09-03T10:08:08.444Z,100564.55
2017-09-03T10:10:35.954Z,100568.14
2017-09-03T10:13:03.359Z,100566.63
2017-09-03T10:15:30.762Z,100571.65
2017-09-03T10:17:58.314Z,100562.69
2017-09-03T10:20:25.715Z,100564.08
2017-09-03T10:22:53.115Z,100567.78
2017-09-03T10:25:20.563Z,100562.61
2017-09-03T10:27:47.955Z,100557.38
2017-09-03T10:30:15.351Z,100553.88
2017-09-03T10:32:42.861Z,100560.49
2017-09-03T10:35:10.267Z,100554.29
2017-09-03T10:37:37.676Z,100555.59
2017-09-03T10:40:05.196Z,100548.33
2017-09-03T10:42:32.595Z,100547.42
2017-09-03T10:44:59.992Z,100546.70
2017-09-03T10:47:27.419Z,100541.73
2017-09-03T10:49:54.825Z,100543.78
2017-09-03T10:52:22.236Z,100537.82
2017-09-03T10:54:49.800Z,100546.86
2017-09-03T10:57:17.192Z,100542.96
2017-09-03T10:59:45.438Z,100541.23
2017-09-03T11:02:12.942Z,100537.72
2017-09-03T11:04:40.339Z,100532.93
2017-09-03T11:07:07.739Z,100535.17
2017-09-03T11:09:35.292Z,100530.19
2017-09-03T11:12:02.686Z,100528.05
2017-09-03T11:14:30.091Z,100525.97
2017-09-03T11:16:57.642Z,100524.30
2017-09-03T11:19:25.045Z,100516.84
2017-09-03T11:21:52.455Z,100513.68
2017-09-03T11:24:19.875Z,100511.70
2017-09-03T11:26:47.275Z,100507.23
2017-09-03T11:29:14.673Z,100510.91
2017-09-03T11:31:42.079Z,100505.28
2017-09-03T11:34:09.486Z,100504.63
2017-09-03T11:36:36.866Z,100507.73
2017-09-03T11:39:04.310Z,100497.63
2017-09-03T11:41:31.710Z,100492.88
2017-09-03T11:43:59.108Z,100492.35
2017-09-03T11:46:26.659Z,100493.59
2017-09-03T11:48:54.056Z,100502.30
2017-09-03T11:51:21.502Z,100495.37
2017-09-03T11:53:49.066Z,100489.62
2017-09-03T11:56:16.462Z,100488.74
2017-09-03T11:58:43.859Z,100484.07
2017-09-03T12:01:11.271Z,100480.59
2017-09-03T12:03:38.667Z,100482.81
2017-09-03T12:06:06.063Z,100480.33
2017-09-03T12:08:33.507Z,100470.44
2017-09-03T12:11:00.915Z,100471.92
2017-09-03T12:13:28.314Z,100472.03
2017-09-03T12:15:55.827Z,100467.18
2017-09-03T12:18:23.223Z,100465.52
2017-09-03T12:20:50.634Z,100453.63
2017-09-03T12:23:18.171Z,100458.28
2017-09-03T12:25:46.399Z,100449.26
2017-09-03T12:28:13.796Z,100454.89
2017-09-03T12:30:41.235Z,100455.81
2017-09-03T12:33:08.648Z,100446.11
2017-09-03T12:35:42.478Z,100445.27
2017-09-03T12:38:09.874Z,100451.04
2017-09-03T12:40:37.267Z,100448.52
2017-09-03T12:43:04.684Z,100438.23
2017-09-03T12:45:32.074Z,100436.30
2017-09-03T12:47:59.503Z,100435.64
2017-09-03T12:50:26.895Z,100427.25
2017-09-03T12:52:54.302Z,100422.95
2017-09-03T12:55:21.719Z,100418.51
2017-09-03T12:57:49.118Z,100410.20
2017-09-03T13:00:17.203Z,100406.20
2017-09-03T13:02:44.613Z,100398.40
2017-09-03T13:05:12.011Z,100399.89
2017-09-03T13:07:39.411Z,100391.52
2017-09-03T13:10:06.815Z,100389.27
2017-09-03T13:12:34.234Z,100390.65
2017-09-03T13:15:01.642Z,100389.50
2017-09-03T13:17:29.035Z,100387.29
2017-09-03T13:19:56.438Z,100387.27
2017-09-03T13:22:23.835Z,100385.03
2017-09-03T13:24:51.271Z,100377.62
2017-09-03T13:27:18.671Z,100376.17
2017-09-03T13:29:46.058Z,100379.22
2017-09-03T13:32:13.462Z,100376.95
2017-09-03T13:34:40.861Z,100370.70
2017-09-03T13:37:08.367Z,100369.05
2017-09-03T13:39:35.780Z,100368.71
2017-09-03T13:42:03.179Z,100366.69
2017-09-03T13:44:30.573Z,100366.37
2017-09-03T13:46:57.968Z,100363.82
2017-09-03T13:49:25.414Z,100358.41
2017-09-03T13:51:52.824Z,100359.24
2017-09-03T13:54:20.228Z,100360.69
2017-09-03T13:56:47.651Z,100352.16
2017-09-03T13:59:15.020Z,100347.53
2017-09-03T14:01:42.571Z,100349.76
2017-09-03T14:04:09.962Z,100349.44
2017-09-03T14:06:37.354Z,100342.41
2017-09-03T14:09:04.759Z,100337.40
2017-09-03T14:11:32.163Z,100337.73
2017-09-03T14:13:59.906Z,100334.43
2017-09-03T14:16:27.298Z,100332.37
2017-09-03T14:18:54.698Z,100323.12
2017-09-03T14:21:22.104Z,100324.00
2017-09-03T14:23:49.501Z,100323.02
2017-09-03T14:26:17.011Z,100317.98
2017-09-03T14:28:44.410Z,100319.63
2017-09-03T14:31:11.818Z,100318.89
2017-09-03T14:33:39.219Z,100318.58
2017-09-03T14:36:06.615Z,100318.28
2017-09-03T14:38:34.038Z,100318.48
2017-09-03T14:41:01.438Z,100312.58
2017-09-03T14:43:28.834Z,100310.43
2017-09-03T14:45:56.243Z,100306.38
2017-09-03T14:48:23.682Z,100311.62
2017-09-03T14:50:51.233Z,100301.71
2017-09-03T14:53:18.627Z,100305.86
2017-09-03T14:55:46.468Z,100302.12
2017-09-03T14:58:14.207Z,100298.84
2017-09-03T15:00:41.607Z,100297.75
2017-09-03T15:03:09.047Z,100293.92
2017-09-03T15:05:36.444Z,100298.41
2017-09-03T15:08:03.848Z,100297.08
2017-09-03T15:10:31.238Z,100305.92
2017-09-03T15:12:58.637Z,100307.26
2017-09-03T15:15:26.163Z,100299.92
2017-09-03T15:17:53.555Z,100296.65
2017-09-03T15:20:20.955Z,100289.81
2017-09-03T15:22:48.351Z,100293.23
2017-09-03T15:25:15.742Z,100292.39
2017-09-03T15:27:43.150Z,100285.06
2017-09-03T15:30:10.551Z,100282.50
2017-09-03T15:32:38.071Z,100284.41
2017-09-03T15:35:05.471Z,100283.89
2017-09-03T15:37:39.182Z,100288.87
2017-09-03T15:40:06.585Z,100284.92
2017-09-03T15:42:33.977Z,100280.92
2017-09-03T15:45:01.375Z,100280.51
2017-09-03T15:47:28.774Z,100277.84
2017-09-03T15:49:56.326Z,100274.63
2017-09-03T15:52:23.719Z,100277.42
2017-09-03T15:54:51.117Z,100275.27
2017-09-03T15:57:18.527Z,100269.25
2017-09-03T15:59:45.927Z,100271.37
2017-09-03T16:02:13.342Z,100267.11
2017-09-03T16:04:40.747Z,100264.02
2017-09-03T16:07:08.172Z,100261.13
2017-09-03T16:09:35.582Z,100260.85
2017-09-03T16:12:03.034Z,100266.70
2017-09-03T16:14:30.586Z,100269.49
2017-09-03T16:16:57.982Z,100265.91
2017-09-03T16:19:25.379Z,100265.33
2017-09-03T16:21:52.785Z,100269.73
2017-09-03T16:24:20.184Z,100268.58
2017-09-03T16:26:47.726Z,100267.83
2017-09-03T16:29:15.118Z,100266.56
2017-09-03T16:31:42.519Z,100265.21
2017-09-03T16:34:09.926Z,100260.80
2017-09-03T16:36:37.336Z,100259.52
2017-09-03T16:39:04.971Z,100264.98
2017-09-03T16:41:32.363Z,100264.64
2017-09-03T16:43:59.760Z,100258.02
2017-09-03T16:46:27.171Z,100260.20
2017-09-03T16:48:54.579Z,100256.00
2017-09-03T16:51:21.991Z,100259.66
2017-09-03T16:53:49.391Z,100253.84
2017-09-03T16:56:16.786Z,100252.75
2017-09-03T16:58:44.183Z,100258.84
2017-09-03T17:01:11.579Z,100259.27
2017-09-03T17:03:39.107Z,100256.56
2017-09-03T17:06:06.506Z,100256.42
2017-09-03T17:08:34.871Z,100255.34
2017-09-03T17:11:02.338Z,100256.14
2017-09-03T17:13:29.736Z,100260.47
2017-09-03T17:15:57.292Z,100263.72
2017-09-03T17:18:24.683Z,100266.84
2017-09-03T17:20:54.090Z,100272.26
2017-09-03T17:23:21.518Z,100269.55
2017-09-03T17:25:48.916Z,100269.12
2017-09-03T17:28:16.462Z,100267.92
2017-09-03T17:30:46.200Z,100273.47
2017-09-03T17:33:13.657Z,100269.81
2017-09-03T17:35:41.987Z,100270.78
2017-09-03T17:38:17.791Z,100269.83
2017-09-03T17:40:48.752Z,100272.41
2017-09-03T17:43:16.491Z,100272.92
2017-09-03T17:45:46.244Z,100281.45
2017-09-03T17:48:13.639Z,100275.77
2017-09-03T17:50:41.168Z,100277.93
2017-09-03T17:53:08.558Z,100284.13
2017-09-03T17:55:35.960Z,100281.02
2017-09-03T17:58:03.371Z,100279.36
2017-09-03T18:00:30.771Z,100279.76
2017-09-03T18:02:58.284Z,100274.73
2017-09-03T18:05:25.678Z,100275.80
2017-09-03T18:07:53.073Z,100273.89
2017-09-03T18:10:20.481Z,100274.56
2017-09-03T18:12:47.884Z,100280.73
2017-09-03T18:15:15.399Z,100280.06
2017-09-03T18:17:42.791Z,100278.17
2017-09-03T18:20:10.194Z,100277.61
2017-09-03T18:22:37.622Z,100276.25
2017-09-03T18:25:05.027Z,100273.52
2017-09-03T18:27:32.582Z,100274.45
2017-09-03T18:30:00.170Z,100269.97
2017-09-03T18:32:27.631Z,100268.72
2017-09-03T18:34:55.045Z,100275.06
2017-09-03T18:37:23.352Z,100268.70
2017-09-03T18:40:02.464Z,100263.41
2017-09-03T18:42:30.640Z,100265.30
2017-09-03T18:44:58.056Z,100258.36
2017-09-03T18:47:25.451Z,100263.63
2017-09-03T18:49:52.860Z,100268.75
2017-09-03T18:52:25.791Z,100271.29
2017-09-03T18:54:53.196Z,100272.62
2017-09-03T18:57:22.426Z,100276.91
2017-09-03T19:03:02.381Z,100283.20
2017-09-03T19:05:31.291Z,100280.61
2017-09-03T19:07:58.697Z,100285.13
2017-09-03T19:10:26.100Z,100283.45
2017-09-03T19:12:53.491Z,100284.23
2017-09-03T19:15:20.910Z,100282.10
2017-09-03T19:17:48.302Z,100283.73
2017-09-03T19:20:15.702Z,100282.62
2017-09-03T19:22:43.115Z,100283.22
2017-09-03T19:25:10.522Z,100286.31
2017-09-03T19:27:38.079Z,100289.11
2017-09-03T19:30:05.478Z,100290.38
2017-09-03T19:32:32.875Z,100294.46
2017-09-03T19:35:00.308Z,100295.08
2017-09-03T19:37:29.043Z,100296.10
2017-09-03T19:39:56.555Z,100298.58
2017-09-03T19:42:23.950Z,100297.70
2017-09-03T19:44:51.346Z,100297.94
2017-09-03T19:47:18.755Z,100299.25
2017-09-03T19:49:46.151Z,100304.63
2017-09-03T19:52:13.654Z,100303.89
2017-09-03T19:54:41.055Z,100307.85
2017-09-03T19:57:08.446Z,100302.28
2017-09-03T19:59:35.846Z,100299.02
2017-09-03T20:02:03.242Z,100301.44
2017-09-03T20:04:30.758Z,100293.97
2017-09-03T20:06:58.152Z,100298.01
2017-09-03T20:09:25.552Z,100301.11
2017-09-03T20:11:52.954Z,100299.30
2017-09-03T20:14:20.361Z,100302.27
2017-09-03T20:16:47.887Z,100298.23
2017-09-03T20:19:15.287Z,100299.91
2017-09-03T20:21:42.685Z,100298.69
2017-09-03T20:24:10.089Z,100290.06
2017-09-03T20:26:37.486Z,100300.46
2017-09-03T20:29:04.955Z,100297.30
2017-09-03T20:31:32.339Z,100301.91
2017-09-03T20:33:59.734Z,100299.33
2017-09-03T20:36:27.159Z,100305.28
2017-09-03T20:38:54.554Z,100305.95
2017-09-03T20:41:22.115Z,100308.55
2017-09-03T20:43:49.523Z,100308.12
2017-09-03T20:46:16.928Z,100308.39
2017-09-03T20:48:44.318Z,100309.98
2017-09-03T20:51:11.747Z,100308.70
2017-09-03T20:53:39.349Z,100313.94
2017-09-03T20:56:06.750Z,100307.85
2017-09-03T20:58:34.183Z,100312.77
2017-09-03T21:01:01.601Z,100309.52
2017-09-03T21:03:29.008Z,100306.49
2017-09-03T21:05:57.339Z,100307.78
2017-09-03T21:08:24.808Z,100305.09
2017-09-03T21:10:52.209Z,100304.83
2017-09-03T21:13:19.603Z,100302.75
2017-09-03T21:15:47.851Z,100300.28
2017-09-03T21:18:15.707Z,100298.55
2017-09-03T21:20:43.108Z,100300.91
2017-09-03T21:23:10.508Z,100298.72
2017-09-03T21:25:37.911Z,100301.20
2017-09-03T21:28:05.434Z,100299.25
2017-09-03T21:30:32.834Z,100303.09
2017-09-03T21:33:00.238Z,100295.03
2017-09-03T21:35:27.639Z,100297.28
2017-09-03T21:37:55.195Z,100303.08
2017-09-03T21:40:22.594Z,100304.21
2017-09-03T21:42:50.347Z,100302.38
2017-09-03T21:45:17.744Z,100303.81
2017-09-03T21:47:45.147Z,100307.50
2017-09-03T21:50:12.551Z,100304.22
2017-09-03T21:52:39.951Z,100307.86
2017-09-03T21:55:07.479Z,100308.36
2017-09-03T21:57:34.878Z,100310.96
2017-09-03T22:00:02.279Z,100307.83
2017-09-03T22:02:30.018Z,100308.28
2017-09-03T22:04:57.415Z,100314.05
2017-09-03T22:07:24.819Z,100316.11
2017-09-03T22:09:52.223Z,100313.27
2017-09-03T22:12:19.624Z,100308.13
2017-09-03T22:14:47.018Z,100306.56
2017-09-03T22:17:14.434Z,100313.16
2017-09-03T22:19:41.830Z,100311.17
2017-09-03T22:22:09.239Z,100306.62
2017-09-03T22:24:36.647Z,100308.33
2017-09-03T22:27:04.041Z,100305.58
2017-09-03T22:29:31.486Z,100308.91
2017-09-03T22:31:58.895Z,100313.29
2017-09-03T22:34:26.294Z,100313.42
2017-09-03T22:36:53.803Z,100311.50
2017-09-03T22:39:21.189Z,100309.52
2017-09-03T22:41:48.588Z,100304.70
2017-09-03T22:44:15.994Z,100306.40
2017-09-03T22:46:43.390Z,100305.44
2017-09-03T22:49:10.898Z,100305.75
2017-09-03T22:51:38.304Z,100307.09
2017-09-03T22:54:05.690Z,100307.33
2017-09-03T22:56:33.107Z,100302.00
2017-09-03T22:59:00.511Z,100304.97
2017-09-03T23:01:28.068Z,100303.72
2017-09-03T23:03:55.468Z,100304.52
2017-09-03T23:06:22.862Z,100302.06
2017-09-03T23:08:50.282Z,100303.34
2017-09-03T23:11:17.678Z,100304.36
2017-09-03T23:13:45.190Z,100299.70
2017-09-03T23:16:12.587Z,100303.59
2017-09-03T23:18:40.010Z,100301.84
2017-09-03T23:21:07.410Z,100299.70
2017-09-03T23:23:34.806Z,100302.83
2017-09-03T23:26:02.244Z,100301.78
2017-09-03T23:28:29.641Z,100305.67
2017-09-03T23:30:57.045Z,100303.72
2017-09-03T23:33:24.452Z,100299.27
2017-09-03T23:35:51.855Z,100304.00
2017-09-03T23:38:19.374Z,100305.05
2017-09-03T23:40:46.803Z,100296.90
2017-09-03T23:43:14.211Z,100299.59
2017-09-03T23:45:41.618Z,100298.34
2017-09-03T23:48:09.015Z,100302.63
2017-09-03T23:50:36.698Z,100302.63
2017-09-03T23:53:04.094Z,100299.88
2017-09-03T23:55:31.494Z,100292.12
2017-09-03T23:57:58.907Z,100292.98
